メインページ
METAR-TAF:

METAR-TAF

空港 :

ウィニペグ・ジェームス・アームストロング・リチャードソン国際空港

ウィニペグ, マニトバ州, カナダ

緯度: 49-54N, 経度: 097-14W, 海抜: 239m

現時点の気象観測

当レポートは46分前の09:00(UTC)に作成
西の風 6kt
気温 6°C
湿度 52%
気圧 1022 hPa
視程: 24.1km
晴天

METAR: CYWG 200900Z 26006KT 15SM SKC 06/M03 A3019 RMK SLP230

時間: 04:46 (09:46 UTC)

予報

当レポートは4時間8分前の05:38(UTC)に作成
予報は20日の 06時(UTC)から 21日の 06時(UTC)まで有効
変向風 3kt
視程: 10km
晴天
20日の 14時(UTC)から 20日の 16時(UTC)まで徐々に
西/南西の風 10kt
20日の 1800時(UTC)から
西/南西の風 12kt
視程: 10km
晴天
21日の 0200時(UTC)から
の風 10kt
視程: 10km
晴天

TAF: CYWG 200538Z 2006/2106 VRB03KT P6SM SKC BECMG 2014/2016 24010KT FM201800 25012KT P6SM SKC FM210200 19010KT P6SM SKC RMK NXT FCST BY 201200Z

4,000以上の空港の気象観測と天気予報(METAR報とTAF報)

利用可能な観測所は地図上に黄色い丸と赤い丸で示す。

丸の上にカーソルを重ねると観測所名を参照できる。

次にクリックすると気象観測と天気予報を参照できる。

マップの切り替え:黒色「×」印の緑ボタンをクリックして拡大、「-」印の緑ボタンをクリックして縮小、緑色の三角印をクリックして隣りの地図に切り替え


METAR-TAF: